This is the latest recevied weather packets stored in our database for station/object WE8M. If no packets are shown the sender has not sent any weather packets the latest 10 day(s).
| Time | Temp. | Humidity | Pressure | Rain* | Wind** | Luminosity | Snow |
|---|---|---|---|---|---|---|---|
| 1777495347 | 17.22° C | 72% | 1010.4 hPa | 0 mm | - | - | - |
| 1777495044 | 17.22° C | 70% | 1010.2 hPa | 0 mm | - | - | - |
| 1777494742 | 17.78° C | 69% | 1010.3 hPa | 0 mm | - | - | - |
| 1777494439 | 17.78° C | 71% | 1010.3 hPa | 0 mm | - | - | - |
| 1777494135 | 17.78° C | 73% | 1010.3 hPa | 0 mm | - | - | - |
| 1777493832 | 17.78° C | 75% | 1010.4 hPa | 0 mm | - | - | - |
| 1777493531 | 17.22° C | 76% | 1010.4 hPa | 0 mm | - | - | - |
| 1777493228 | 17.22° C | 75% | 1010.4 hPa | 0 mm | - | - | - |
| 1777492924 | 16.11° C | 80% | 1010.5 hPa | 0 mm | - | - | - |
| 1777492621 | 16.11° C | 80% | 1010.4 hPa | 0 mm | - | - | - |
| 1777492316 | 16.67° C | 77% | 1010.5 hPa | 0 mm | - | - | - |
| 1777492013 | 16.11° C | 83% | 1010.5 hPa | 0 mm | - | - | - |
| 1777491709 | 15° C | 82% | 1010.4 hPa | 0 mm | - | - | - |
| 1777491407 | 14.44° C | 85% | 1010.5 hPa | 0 mm | - | - | - |
| 1777491104 | 13.89° C | 87% | 1010.5 hPa | 0 mm | - | - | - |
| 1777490799 | 13.89° C | 87% | 1010.6 hPa | 0 mm | - | - | - |
| 1777490496 | 13.89° C | 87% | 1010.4 hPa | 1.78 mm | - | - | - |
| 1777490192 | 14.44° C | 86% | 1010.3 hPa | 0 mm | - | - | - |
| 1777489890 | 15° C | 85% | 1010.2 hPa | 0 mm | - | - | - |
| 1777489588 | 15° C | 86% | 1010.4 hPa | 0 mm | - | - | - |
| 1777489284 | 14.44° C | 88% | 1010.2 hPa | 0 mm | - | - | - |
| 1777488981 | 14.44° C | 88% | 1010.1 hPa | 0 mm | - | - | - |
| 1777488678 | 14.44° C | 88% | 1010.1 hPa | 0 mm | - | - | - |
| 1777488376 | 14.44° C | 88% | 1010.1 hPa | 0 mm | - | - | - |
| 1777488074 | 14.44° C | 87% | 1010 hPa | 0 mm | - | - | - |
* Rain latest hour (hover to see other rain measurements)
** Current wind speed in m/s (hover to see current wind gust speed)